La rose des vents
Donnes mto: Semaine 26/11/07 - 02/12/07 (S 48)
Date Horaire Temp. E. Hum. E. P.atmo. Pluie Vent 1mn Direction Ensoleilleme Ev.Tr. Solaire P. de rose Temp au vent Rafales
26/11/2007 00:00 9,5 C 94 % 1015,0 hPa 0,0 l/m 4,5 km/h (1 Bft) NO 0,00 h 0,025 mm 0 W/m 8,6 C 9,3 C 7,0 km/h (2 Bft)
26/11/2007 01:00 8,9 C 94 % 1014,2 hPa 0,0 l/m 4,8 km/h (1 Bft) NO 0,00 h 0,000 mm 0 W/m 7,9 C 8,5 C 7,3 km/h (2 Bft)
26/11/2007 02:00 8,4 C 93 % 1013,6 hPa 0,0 l/m 7,5 km/h (2 Bft) O 0,00 h 0,000 mm 0 W/m 7,4 C 7,3 C 10,4 km/h (2 Bft)
26/11/2007 03:00 8,4 C 91 % 1013,1 hPa 0,2 l/m 9,5 km/h (2 Bft) O-NO 0,00 h 0,025 mm 0 W/m 7,0 C 6,8 C 12,8 km/h (3 Bft)
26/11/2007 04:00 8,2 C 88 % 1012,7 hPa 0,0 l/m 6,7 km/h (2 Bft) O-NO 0,00 h 0,025 mm 0 W/m 6,3 C 7,2 C 9,8 km/h (2 Bft)
26/11/2007 05:00 8,0 C 88 % 1012,5 hPa 0,0 l/m 2,9 km/h (1 Bft) O 0,00 h 0,025 mm 0 W/m 6,2 C 7,9 C 4,0 km/h (1 Bft)
26/11/2007 06:00 8,3 C 87 % 1012,5 hPa 0,0 l/m 2,9 km/h (1 Bft) O 0,00 h 0,025 mm 0 W/m 6,3 C 8,2 C 4,0 km/h (1 Bft)
26/11/2007 07:00 8,3 C 86 % 1012,6 hPa 0,0 l/m 4,0 km/h (1 Bft) O-NO 0,17 h 0,025 mm 18 W/m 6,2 C 8,0 C 5,6 km/h (1 Bft)
26/11/2007 08:00 9,6 C 81 % 1013,0 hPa 0,0 l/m 2,6 km/h (1 Bft) O-NO 1,00 h 0,025 mm 111 W/m 6,5 C 9,5 C 4,1 km/h (1 Bft)
26/11/2007 09:00 11,8 C 71 % 1013,3 hPa 0,0 l/m 0,8 km/h (0 Bft) O-NO 1,00 h 0,051 mm 230 W/m 6,7 C 11,8 C 1,9 km/h (1 Bft)
26/11/2007 10:00 13,8 C 68 % 1013,9 hPa 0,0 l/m 1,2 km/h (1 Bft) S-SO 1,00 h 0,127 mm 352 W/m 7,9 C 13,8 C 2,9 km/h (1 Bft)
26/11/2007 11:00 14,8 C 63 % 1014,0 hPa 0,0 l/m 2,4 km/h (1 Bft) E-SE 1,00 h 0,178 mm 395 W/m 7,7 C 14,8 C 4,7 km/h (1 Bft)
26/11/2007 12:00 15,4 C 62 % 1013,6 hPa 0,0 l/m 2,7 km/h (1 Bft) E-SE 0,98 h 0,229 mm 392 W/m 8,0 C 15,4 C 5,0 km/h (1 Bft)
26/11/2007 13:00 15,4 C 65 % 1013,4 hPa 0,0 l/m 3,6 km/h (1 Bft) E-SE 0,93 h 0,229 mm 337 W/m 8,8 C 15,4 C 6,5 km/h (2 Bft)
26/11/2007 14:00 15,7 C 62 % 1013,4 hPa 0,0 l/m 1,9 km/h (1 Bft) E-SE 1,00 h 0,203 mm 284 W/m 8,3 C 15,7 C 3,9 km/h (1 Bft)
26/11/2007 15:00 14,9 C 68 % 1013,5 hPa 0,0 l/m 3,2 km/h (1 Bft) E-NE 1,00 h 0,152 mm 166 W/m 9,0 C 14,9 C 5,2 km/h (1 Bft)
26/11/2007 16:00 13,7 C 72 % 1014,0 hPa 0,0 l/m 0,8 km/h (0 Bft) E-NE 0,72 h 0,102 mm 42 W/m 8,7 C 13,7 C 1,4 km/h (1 Bft)
26/11/2007 17:00 11,2 C 77 % 1014,3 hPa 0,0 l/m 0,8 km/h (0 Bft) E-NE 0,00 h 0,025 mm 5 W/m 7,2 C 11,2 C 1,6 km/h (1 Bft)
26/11/2007 18:00 10,2 C 82 % 1014,6 hPa 0,0 l/m 1,5 km/h (1 Bft) E-NE 0,00 h 0,000 mm 0 W/m 7,2 C 10,2 C 2,5 km/h (1 Bft)
26/11/2007 19:00 9,7 C 85 % 1015,0 hPa 0,0 l/m 3,5 km/h (1 Bft) NO 0,00 h 0,025 mm 0 W/m 7,2 C 9,6 C 5,1 km/h (1 Bft)
26/11/2007 20:00 9,9 C 86 % 1015,1 hPa 0,0 l/m 4,6 km/h (1 Bft) NO 0,00 h 0,025 mm 0 W/m 7,5 C 9,6 C 6,1 km/h (2 Bft)
26/11/2007 21:00 9,4 C 82 % 1015,2 hPa 0,0 l/m 5,3 km/h (1 Bft) O-NO 0,00 h 0,025 mm 0 W/m 6,4 C 9,0 C 6,9 km/h (2 Bft)
26/11/2007 22:00 9,7 C 79 % 1015,5 hPa 0,0 l/m 1,4 km/h (1 Bft) NO 0,00 h 0,025 mm 0 W/m 6,3 C 9,7 C 2,0 km/h (1 Bft)
26/11/2007 23:00 9,8 C 76 % 1015,6 hPa 0,0 l/m 2,7 km/h (1 Bft) NO 0,00 h 0,025 mm 0 W/m 5,7 C 9,7 C 4,2 km/h (1 Bft)
27/11/2007 00:00 9,8 C 75 % 1015,5 hPa 0,0 l/m 5,0 km/h (1 Bft) NO 0,00 h 0,025 mm 0 W/m 5,5 C 9,6 C 6,5 km/h (2 Bft)
27/11/2007 01:00 9,9 C 74 % 1015,0 hPa 0,0 l/m 3,3 km/h (1 Bft) O-NO 0,00 h 0,025 mm 0 W/m 5,5 C 9,8 C 5,0 km/h (1 Bft)
27/11/2007 02:00 9,3 C 74 % 1015,0 hPa 0,0 l/m 1,9 km/h (1 Bft) S-SO 0,00 h 0,025 mm 0 W/m 4,9 C 9,3 C 2,7 km/h (1 Bft)
27/11/2007 03:00 9,4 C 75 % 1015,3 hPa 0,0 l/m 4,2 km/h (1 Bft) S-SO 0,00 h 0,025 mm 0 W/m 5,1 C 9,1 C 5,4 km/h (1 Bft)
27/11/2007 04:00 8,4 C 74 % 1015,6 hPa 0,0 l/m 4,0 km/h (1 Bft) NO 0,00 h 0,025 mm 0 W/m 4,0 C 8,1 C 6,0 km/h (2 Bft)
27/11/2007 05:00 8,6 C 72 % 1015,7 hPa 0,0 l/m 3,8 km/h (1 Bft) N-NO 0,00 h 0,025 mm 0 W/m 3,9 C 8,4 C 5,9 km/h (2 Bft)
27/11/2007 06:00 9,2 C 69 % 1015,9 hPa 0,0 l/m 3,5 km/h (1 Bft) NO 0,00 h 0,025 mm 0 W/m 3,9 C 9,0 C 5,5 km/h (1 Bft)
27/11/2007 07:00 9,7 C 70 % 1016,3 hPa 0,0 l/m 3,2 km/h (1 Bft) N-NO 0,15 h 0,025 mm 18 W/m 4,4 C 9,6 C 4,7 km/h (1 Bft)
27/11/2007 08:00 11,1 C 72 % 1016,8 hPa 0,0 l/m 3,0 km/h (1 Bft) N-NO 1,00 h 0,025 mm 111 W/m 6,2 C 11,1 C 4,7 km/h (1 Bft)
27/11/2007 09:00 13,9 C 66 % 1017,2 hPa 0,0 l/m 1,0 km/h (0 Bft) N-NO 1,00 h 0,076 mm 261 W/m 7,6 C 13,9 C 2,0 km/h (1 Bft)
27/11/2007 10:00 14,1 C 64 % 1017,5 hPa 0,0 l/m 0,9 km/h (0 Bft) S-SE 0,73 h 0,152 mm 216 W/m 7,3 C 14,1 C 1,9 km/h (1 Bft)
27/11/2007 11:00 15,1 C 61 % 1017,3 hPa 0,0 l/m 3,2 km/h (1 Bft) SO 1,00 h 0,127 mm 355 W/m 7,7 C 15,1 C 4,7 km/h (1 Bft)
27/11/2007 12:00 16,6 C 36 % 1016,7 hPa 0,0 l/m 3,6 km/h (1 Bft) S 1,00 h 0,203 mm 398 W/m 1,1 C 16,6 C 6,0 km/h (2 Bft)
27/11/2007 13:00 16,3 C 39 % 1016,4 hPa 0,0 l/m 6,5 km/h (2 Bft) S-SE 0,92 h 0,254 mm 339 W/m 2,2 C 16,3 C 9,8 km/h (2 Bft)
27/11/2007 14:00 15,7 C 49 % 1016,2 hPa 0,0 l/m 2,3 km/h (1 Bft) E-SE 1,00 h 0,229 mm 283 W/m 4,9 C 15,7 C 5,5 km/h (1 Bft)
27/11/2007 15:00 15,2 C 54 % 1016,1 hPa 0,0 l/m 1,3 km/h (1 Bft) SE 1,00 h 0,178 mm 165 W/m 5,8 C 15,2 C 3,0 km/h (1 Bft)
27/11/2007 16:00 14,1 C 58 % 1016,1 hPa 0,0 l/m 1,7 km/h (1 Bft) SE 0,72 h 0,102 mm 42 W/m 6,0 C 14,1 C 2,6 km/h (1 Bft)
27/11/2007 17:00 11,7 C 64 % 1016,3 hPa 0,0 l/m 2,7 km/h (1 Bft) O-NO 0,00 h 0,025 mm 0 W/m 5,0 C 11,7 C 3,6 km/h (1 Bft)
27/11/2007 18:00 10,4 C 66 % 1016,3 hPa 0,0 l/m 5,3 km/h (1 Bft) O-NO 0,00 h 0,025 mm 0 W/m 4,4 C 10,3 C 7,6 km/h (2 Bft)
27/11/2007 19:00 10,4 C 61 % 1016,8 hPa 0,0 l/m 3,7 km/h (1 Bft) N-NO 0,00 h 0,051 mm 0 W/m 3,3 C 10,4 C 5,1 km/h (1 Bft)
27/11/2007 20:00 10,7 C 54 % 1017,0 hPa 0,0 l/m 3,2 km/h (1 Bft) O-NO 0,00 h 0,051 mm 0 W/m 1,8 C 10,7 C 4,4 km/h (1 Bft)
27/11/2007 21:00 9,6 C 57 % 1017,2 hPa 0,0 l/m 3,3 km/h (1 Bft) O-NO 0,00 h 0,051 mm 0 W/m 1,5 C 9,5 C 4,5 km/h (1 Bft)
27/11/2007 22:00 9,8 C 56 % 1017,2 hPa 0,0 l/m 5,0 km/h (1 Bft) O-NO 0,00 h 0,051 mm 0 W/m 1,5 C 9,4 C 6,7 km/h (2 Bft)
27/11/2007 23:00 9,4 C 56 % 1017,2 hPa 0,0 l/m 4,1 km/h (1 Bft) O-NO 0,00 h 0,051 mm 0 W/m 1,1 C 9,2 C 5,7 km/h (1 Bft)
28/11/2007 00:00 9,2 C 57 % 1017,0 hPa 0,0 l/m 3,7 km/h (1 Bft) O-NO 0,00 h 0,051 mm 0 W/m 1,2 C 9,1 C 4,9 km/h (1 Bft)
28/11/2007 01:00 9,0 C 60 % 1017,0 hPa 0,0 l/m 3,0 km/h (1 Bft) O-NO 0,00 h 0,051 mm 0 W/m 1,7 C 8,9 C 4,2 km/h (1 Bft)
28/11/2007 02:00 8,5 C 63 % 1016,8 hPa 0,0 l/m 6,0 km/h (2 Bft) O-NO 0,00 h 0,051 mm 0 W/m 1,9 C 7,7 C 7,6 km/h (2 Bft)
28/11/2007 03:00 8,2 C 63 % 1016,5 hPa 0,0 l/m 6,8 km/h (2 Bft) O-NO 0,00 h 0,051 mm 0 W/m 1,7 C 7,2 C 8,8 km/h (2 Bft)
28/11/2007 04:00 7,9 C 64 % 1015,9 hPa 0,0 l/m 4,9 km/h (1 Bft) NO 0,00 h 0,051 mm 0 W/m 1,4 C 7,3 C 7,1 km/h (2 Bft)
28/11/2007 05:00 7,9 C 59 % 1016,0 hPa 0,0 l/m 8,3 km/h (2 Bft) O-NO 0,00 h 0,051 mm 0 W/m 0,3 C 6,6 C 11,7 km/h (2 Bft)
28/11/2007 06:00 7,4 C 57 % 1015,6 hPa 0,0 l/m 3,0 km/h (1 Bft) O-NO 0,00 h 0,051 mm 0 W/m -0,5 C 7,2 C 5,5 km/h (1 Bft)
28/11/2007 07:00 7,2 C 60 % 1015,9 hPa 0,0 l/m 1,0 km/h (0 Bft) N-NO 0,12 h 0,051 mm 10 W/m 0,1 C 7,2 C 2,0 km/h (1 Bft)
28/11/2007 08:00 9,0 C 57 % 1016,6 hPa 0,0 l/m 2,9 km/h (1 Bft) SO 1,00 h 0,025 mm 86 W/m 0,9 C 8,8 C 4,1 km/h (1 Bft)
28/11/2007 09:00 10,4 C 56 % 1016,5 hPa 0,0 l/m 1,7 km/h (1 Bft) NO 1,00 h 0,051 mm 210 W/m 1,9 C 10,4 C 2,8 km/h (1 Bft)
28/11/2007 10:00 12,7 C 54 % 1016,6 hPa 0,0 l/m 1,7 km/h (1 Bft) S 1,00 h 0,102 mm 312 W/m 3,6 C 12,7 C 3,1 km/h (1 Bft)
28/11/2007 11:00 13,8 C 53 % 1016,7 hPa 0,0 l/m 4,2 km/h (1 Bft) S-SE 1,00 h 0,178 mm 372 W/m 4,3 C 13,8 C 6,8 km/h (2 Bft)
28/11/2007 12:00 13,7 C 57 % 1016,3 hPa 0,0 l/m 7,0 km/h (2 Bft) S 1,00 h 0,229 mm 382 W/m 5,4 C 13,7 C 10,4 km/h (2 Bft)
28/11/2007 13:00 14,3 C 57 % 1015,4 hPa 0,0 l/m 8,8 km/h (2 Bft) SO 1,00 h 0,229 mm 349 W/m 5,9 C 14,3 C 12,6 km/h (3 Bft)
28/11/2007 14:00 14,9 C 54 % 1014,3 hPa 0,0 l/m 8,2 km/h (2 Bft) SO 1,00 h 0,229 mm 269 W/m 5,6 C 14,9 C 11,7 km/h (2 Bft)
28/11/2007 15:00 14,4 C 57 % 1014,0 hPa 0,0 l/m 7,7 km/h (2 Bft) S 1,00 h 0,203 mm 154 W/m 6,1 C 14,4 C 10,8 km/h (2 Bft)
28/11/2007 16:00 12,4 C 65 % 1014,1 hPa 0,0 l/m 6,0 km/h (2 Bft) S-SO 0,50 h 0,127 mm 37 W/m 6,0 C 12,4 C 8,0 km/h (2 Bft)
28/11/2007 17:00 10,6 C 71 % 1014,3 hPa 0,0 l/m 6,7 km/h (2 Bft) O 0,00 h 0,051 mm 0 W/m 5,5 C 10,6 C 9,3 km/h (2 Bft)
28/11/2007 18:00 9,9 C 73 % 1014,5 hPa 0,0 l/m 8,5 km/h (2 Bft) O 0,00 h 0,025 mm 0 W/m 5,4 C 9,0 C 12,8 km/h (3 Bft)
28/11/2007 19:00 9,2 C 74 % 1014,5 hPa 0,0 l/m 6,6 km/h (2 Bft) O 0,00 h 0,051 mm 0 W/m 4,8 C 8,4 C 9,7 km/h (2 Bft)
28/11/2007 20:00 8,3 C 76 % 1014,3 hPa 0,0 l/m 2,5 km/h (1 Bft) N 0,00 h 0,025 mm 0 W/m 4,3 C 8,1 C 3,7 km/h (1 Bft)
28/11/2007 21:00 8,4 C 77 % 1014,1 hPa 0,0 l/m 5,8 km/h (1 Bft) SO 0,00 h 0,025 mm 0 W/m 4,6 C 7,7 C 6,8 km/h (2 Bft)
28/11/2007 22:00 8,3 C 76 % 1014,1 hPa 0,0 l/m 1,8 km/h (1 Bft) O-SO 0,00 h 0,025 mm 0 W/m 4,3 C 8,1 C 2,6 km/h (1 Bft)
28/11/2007 23:00 8,3 C 76 % 1014,3 hPa 0,0 l/m 1,5 km/h (1 Bft) O-SO 0,00 h 0,025 mm 0 W/m 4,3 C 8,2 C 2,2 km/h (1 Bft)
29/11/2007 00:00 8,4 C 73 % 1014,1 hPa 0,0 l/m 3,7 km/h (1 Bft) O-SO 0,00 h 0,025 mm 0 W/m 3,8 C 8,2 C 5,4 km/h (1 Bft)
29/11/2007 01:00 8,7 C 70 % 1013,2 hPa 0,0 l/m 3,5 km/h (1 Bft) O-NO 0,00 h 0,025 mm 0 W/m 3,5 C 8,5 C 5,1 km/h (1 Bft)
29/11/2007 02:00 8,9 C 67 % 1012,9 hPa 0,0 l/m 3,8 km/h (1 Bft) O-NO 0,00 h 0,025 mm 0 W/m 3,1 C 8,7 C 5,9 km/h (2 Bft)
29/11/2007 03:00 8,2 C 70 % 1012,6 hPa 0,0 l/m 3,9 km/h (1 Bft) O-NO 0,00 h 0,025 mm 0 W/m 3,1 C 7,9 C 5,9 km/h (2 Bft)
29/11/2007 04:00 8,7 C 69 % 1012,4 hPa 0,0 l/m 3,8 km/h (1 Bft) O 0,00 h 0,025 mm 0 W/m 3,2 C 8,5 C 4,9 km/h (1 Bft)
29/11/2007 05:00 8,1 C 71 % 1012,1 hPa 0,0 l/m 6,5 km/h (2 Bft) O 0,00 h 0,025 mm 0 W/m 3,1 C 7,1 C 8,5 km/h (2 Bft)
29/11/2007 06:00 7,6 C 73 % 1011,8 hPa 0,0 l/m 9,2 km/h (2 Bft) O-NO 0,00 h 0,025 mm 0 W/m 3,1 C 6,0 C 12,0 km/h (2 Bft)
29/11/2007 07:00 7,6 C 72 % 1011,8 hPa 0,0 l/m 12,3 km/h (3 Bft) O-NO 0,02 h 0,051 mm 9 W/m 2,9 C 5,4 C 16,1 km/h (3 Bft)
29/11/2007 08:00 8,8 C 70 % 1012,0 hPa 0,0 l/m 8,5 km/h (2 Bft) O 0,55 h 0,051 mm 66 W/m 3,7 C 7,6 C 11,7 km/h (2 Bft)
29/11/2007 09:00 10,9 C 67 % 1011,9 hPa 0,0 l/m 5,7 km/h (1 Bft) O 1,00 h 0,051 mm 198 W/m 5,1 C 10,8 C 8,2 km/h (2 Bft)
29/11/2007 10:00 11,7 C 64 % 1011,9 hPa 0,0 l/m 12,0 km/h (2 Bft) S-SO 0,68 h 0,127 mm 221 W/m 5,0 C 11,7 C 16,5 km/h (3 Bft)
29/11/2007 11:00 12,7 C 61 % 1011,3 hPa 0,0 l/m 15,2 km/h (3 Bft) S-SO 1,00 h 0,152 mm 350 W/m 5,4 C 12,7 C 20,3 km/h (4 Bft)
29/11/2007 12:00 12,5 C 65 % 1010,7 hPa 0,0 l/m 13,5 km/h (3 Bft) S-SO 0,25 h 0,254 mm 208 W/m 6,1 C 12,5 C 18,3 km/h (3 Bft)
29/11/2007 13:00 12,7 C 65 % 1010,2 hPa 0,0 l/m 9,9 km/h (2 Bft) SO 0,08 h 0,152 mm 179 W/m 6,3 C 12,7 C 13,5 km/h (3 Bft)
29/11/2007 14:00 13,4 C 66 % 1009,4 hPa 0,0 l/m 12,1 km/h (2 Bft) S 0,88 h 0,127 mm 275 W/m 7,0 C 13,4 C 16,3 km/h (3 Bft)
29/11/2007 15:00 12,4 C 73 % 1009,1 hPa 0,0 l/m 15,5 km/h (3 Bft) S 0,47 h 0,203 mm 116 W/m 7,6 C 12,4 C 19,8 km/h (4 Bft)
29/11/2007 16:00 11,5 C 78 % 1009,2 hPa 0,0 l/m 12,2 km/h (2 Bft) S-SO 0,00 h 0,102 mm 21 W/m 7,7 C 11,5 C 16,6 km/h (3 Bft)
29/11/2007 17:00 11,1 C 79 % 1009,6 hPa 0,0 l/m 5,4 km/h (1 Bft) SO 0,00 h 0,051 mm 0 W/m 7,6 C 11,1 C 8,0 km/h (2 Bft)
29/11/2007 18:00 10,8 C 80 % 1009,9 hPa 0,0 l/m 5,1 km/h (1 Bft) SO 0,00 h 0,025 mm 0 W/m 7,4 C 10,8 C 7,0 km/h (2 Bft)
29/11/2007 19:00 10,5 C 80 % 1010,0 hPa 0,0 l/m 5,2 km/h (1 Bft) O-SO 0,00 h 0,025 mm 0 W/m 7,2 C 10,5 C 6,8 km/h (2 Bft)
29/11/2007 20:00 9,9 C 83 % 1009,9 hPa 0,0 l/m 5,7 km/h (1 Bft) O 0,00 h 0,025 mm 0 W/m 7,1 C 9,5 C 7,4 km/h (2 Bft)
29/11/2007 21:00 9,4 C 85 % 1010,0 hPa 0,0 l/m 6,5 km/h (2 Bft) O-NO 0,00 h 0,025 mm 0 W/m 7,0 C 8,6 C 8,9 km/h (2 Bft)
29/11/2007 22:00 8,8 C 85 % 1010,0 hPa 0,0 l/m 6,4 km/h (2 Bft) O-NO 0,00 h 0,025 mm 0 W/m 6,4 C 7,9 C 8,8 km/h (2 Bft)
29/11/2007 23:00 8,6 C 82 % 1009,9 hPa 0,0 l/m 1,6 km/h (1 Bft) N 0,00 h 0,025 mm 0 W/m 5,7 C 8,5 C 3,5 km/h (1 Bft)
30/11/2007 00:00 8,9 C 85 % 1009,8 hPa 0,0 l/m 2,1 km/h (1 Bft) N-NO 0,00 h 0,025 mm 0 W/m 6,4 C 8,9 C 4,5 km/h (1 Bft)
30/11/2007 01:00 8,6 C 85 % 1009,5 hPa 0,0 l/m 1,8 km/h (1 Bft) N 0,00 h 0,025 mm 0 W/m 6,2 C 8,6 C 4,1 km/h (1 Bft)
30/11/2007 02:00 8,1 C 87 % 1009,5 hPa 0,0 l/m 3,0 km/h (1 Bft) NO 0,00 h 0,025 mm 0 W/m 6,0 C 7,9 C 5,0 km/h (1 Bft)
30/11/2007 03:00 7,4 C 87 % 1009,5 hPa 0,0 l/m 3,9 km/h (1 Bft) O-NO 0,00 h 0,025 mm 0 W/m 5,4 C 7,1 C 6,2 km/h (2 Bft)
30/11/2007 04:00 6,9 C 84 % 1009,3 hPa 0,0 l/m 6,2 km/h (2 Bft) O 0,00 h 0,025 mm 0 W/m 4,3 C 5,9 C 8,3 km/h (2 Bft)
30/11/2007 05:00 6,9 C 81 % 1009,3 hPa 0,0 l/m 6,1 km/h (2 Bft) O-NO 0,00 h 0,025 mm 0 W/m 3,8 C 5,9 C 8,2 km/h (2 Bft)
30/11/2007 06:00 6,3 C 82 % 1009,2 hPa 0,0 l/m 5,2 km/h (1 Bft) O-NO 0,00 h 0,025 mm 0 W/m 3,4 C 5,5 C 8,0 km/h (2 Bft)
30/11/2007 07:00 6,0 C 82 % 1009,6 hPa 0,0 l/m 4,0 km/h (1 Bft) NO 0,08 h 0,025 mm 9 W/m 3,2 C 5,6 C 6,5 km/h (2 Bft)
30/11/2007 08:00 7,4 C 79 % 1010,0 hPa 0,0 l/m 3,4 km/h (1 Bft) NO 0,95 h 0,025 mm 74 W/m 4,0 C 7,2 C 5,2 km/h (1 Bft)
30/11/2007 09:00 10,1 C 69 % 1010,4 hPa 0,0 l/m 0,6 km/h (0 Bft) NO 1,00 h 0,051 mm 197 W/m 4,6 C 10,1 C 1,3 km/h (1 Bft)
30/11/2007 10:00 12,2 C 63 % 1010,6 hPa 0,0 l/m 2,6 km/h (1 Bft) E 1,00 h 0,102 mm 301 W/m 5,4 C 12,2 C 4,6 km/h (1 Bft)
30/11/2007 11:00 12,9 C 62 % 1010,7 hPa 0,0 l/m 3,2 km/h (1 Bft) S-SE 1,00 h 0,152 mm 369 W/m 5,8 C 12,9 C 5,3 km/h (1 Bft)
30/11/2007 12:00 13,7 C 62 % 1010,4 hPa 0,0 l/m 4,6 km/h (1 Bft) S-SE 0,95 h 0,203 mm 368 W/m 6,6 C 13,7 C 7,3 km/h (2 Bft)
30/11/2007 13:00 13,7 C 66 % 1010,0 hPa 0,0 l/m 4,4 km/h (1 Bft) S-SE 0,85 h 0,203 mm 307 W/m 7,4 C 13,7 C 7,3 km/h (2 Bft)
30/11/2007 14:00 13,2 C 68 % 1010,2 hPa 0,0 l/m 5,3 km/h (1 Bft) S-SE 0,63 h 0,178 mm 210 W/m 7,4 C 13,2 C 7,6 km/h (2 Bft)
30/11/2007 15:00 12,6 C 64 % 1010,4 hPa 0,0 l/m 4,8 km/h (1 Bft) S-SE 0,87 h 0,127 mm 139 W/m 5,9 C 12,6 C 6,6 km/h (2 Bft)
30/11/2007 16:00 11,3 C 68 % 1010,8 hPa 0,0 l/m 1,8 km/h (1 Bft) S 0,37 h 0,102 mm 35 W/m 5,7 C 11,3 C 2,4 km/h (1 Bft)
30/11/2007 17:00 9,4 C 72 % 1011,6 hPa 0,0 l/m 0,7 km/h (0 Bft) S 0,00 h 0,025 mm 5 W/m 4,6 C 9,4 C 1,3 km/h (1 Bft)
30/11/2007 18:00 8,6 C 77 % 1012,1 hPa 0,0 l/m 1,6 km/h (1 Bft) S-SO 0,00 h 0,000 mm 0 W/m 4,7 C 8,6 C 3,0 km/h (1 Bft)
30/11/2007 19:00 8,3 C 81 % 1012,7 hPa 0,0 l/m 3,8 km/h (1 Bft) SO 0,00 h 0,025 mm 0 W/m 5,2 C 8,1 C 5,5 km/h (1 Bft)
30/11/2007 20:00 7,9 C 82 % 1013,2 hPa 0,0 l/m 3,7 km/h (1 Bft) NO 0,00 h 0,025 mm 0 W/m 5,1 C 7,7 C 5,4 km/h (1 Bft)
30/11/2007 21:00 7,7 C 83 % 1013,2 hPa 0,0 l/m 3,3 km/h (1 Bft) NO 0,00 h 0,025 mm 0 W/m 5,0 C 7,6 C 5,0 km/h (1 Bft)
30/11/2007 22:00 7,6 C 83 % 1013,4 hPa 0,0 l/m 2,2 km/h (1 Bft) NO 0,00 h 0,025 mm 0 W/m 4,8 C 7,6 C 3,7 km/h (1 Bft)
30/11/2007 23:00 7,5 C 81 % 1013,5 hPa 0,0 l/m 1,6 km/h (1 Bft) NO 0,00 h 0,025 mm 0 W/m 4,4 C 7,4 C 2,6 km/h (1 Bft)
01/12/2007 00:00 7,8 C 79 % 1013,8 hPa 0,0 l/m 2,1 km/h (1 Bft) NO 0,00 h 0,000 mm 0 W/m 4,4 C 7,6 C 3,6 km/h (1 Bft)
01/12/2007 01:00 7,1 C 77 % 1013,8 hPa 0,0 l/m 4,6 km/h (1 Bft) NO 0,00 h 0,025 mm 0 W/m 3,4 C 6,6 C 6,9 km/h (2 Bft)
01/12/2007 02:00 7,3 C 76 % 1014,0 hPa 0,0 l/m 4,4 km/h (1 Bft) O-NO 0,00 h 0,025 mm 0 W/m 3,4 C 6,9 C 6,2 km/h (2 Bft)
01/12/2007 03:00 7,3 C 76 % 1013,8 hPa 0,0 l/m 4,1 km/h (1 Bft) NO 0,00 h 0,025 mm 0 W/m 3,4 C 6,9 C 5,5 km/h (1 Bft)
01/12/2007 04:00 7,2 C 77 % 1014,0 hPa 0,0 l/m 4,3 km/h (1 Bft) NO 0,00 h 0,025 mm 0 W/m 3,3 C 6,8 C 6,1 km/h (2 Bft)
01/12/2007 05:00 7,1 C 77 % 1014,0 hPa 0,0 l/m 5,1 km/h (1 Bft) NO 0,00 h 0,025 mm 0 W/m 3,3 C 6,4 C 7,2 km/h (2 Bft)
01/12/2007 06:00 7,1 C 76 % 1014,0 hPa 0,0 l/m 4,2 km/h (1 Bft) NO 0,00 h 0,025 mm 0 W/m 3,3 C 6,8 C 6,5 km/h (2 Bft)
01/12/2007 07:00 6,8 C 76 % 1014,3 hPa 0,0 l/m 3,5 km/h (1 Bft) O-NO 0,07 h 0,025 mm 9 W/m 2,9 C 6,6 C 5,9 km/h (2 Bft)
01/12/2007 08:00 8,0 C 72 % 1014,6 hPa 0,0 l/m 4,2 km/h (1 Bft) O-NO 0,97 h 0,025 mm 70 W/m 3,3 C 7,7 C 5,8 km/h (1 Bft)
01/12/2007 09:00 11,0 C 63 % 1015,0 hPa 0,0 l/m 2,0 km/h (1 Bft) O-NO 1,00 h 0,051 mm 193 W/m 4,2 C 11,0 C 3,6 km/h (1 Bft)
01/12/2007 10:00 12,4 C 64 % 1015,2 hPa 0,0 l/m 1,1 km/h (1 Bft) SE 1,00 h 0,102 mm 295 W/m 5,8 C 12,4 C 2,7 km/h (1 Bft)
01/12/2007 11:00 13,1 C 65 % 1014,7 hPa 0,0 l/m 3,5 km/h (1 Bft) E-NE 1,00 h 0,152 mm 358 W/m 6,6 C 13,1 C 5,7 km/h (1 Bft)
01/12/2007 12:00 13,4 C 69 % 1014,0 hPa 0,0 l/m 5,4 km/h (1 Bft) E-NE 1,00 h 0,203 mm 367 W/m 7,7 C 13,4 C 7,8 km/h (2 Bft)
01/12/2007 13:00 13,6 C 73 % 1013,5 hPa 0,0 l/m 7,4 km/h (2 Bft) E-NE 1,00 h 0,203 mm 336 W/m 8,7 C 13,6 C 10,6 km/h (2 Bft)
01/12/2007 14:00 13,6 C 77 % 1013,2 hPa 0,0 l/m 6,6 km/h (2 Bft) E-NE 1,00 h 0,203 mm 254 W/m 9,7 C 13,6 C 9,6 km/h (2 Bft)
01/12/2007 15:00 12,9 C 81 % 1013,2 hPa 0,0 l/m 4,3 km/h (1 Bft) E-NE 1,00 h 0,152 mm 142 W/m 9,7 C 12,9 C 6,4 km/h (2 Bft)
01/12/2007 16:00 11,9 C 83 % 1013,5 hPa 0,0 l/m 1,0 km/h (0 Bft) NE 0,70 h 0,076 mm 36 W/m 9,1 C 11,9 C 3,4 km/h (1 Bft)
01/12/2007 17:00 10,1 C 85 % 1013,8 hPa 0,0 l/m 1,0 km/h (0 Bft) N-NE 0,00 h 0,025 mm 0 W/m 7,7 C 10,1 C 2,4 km/h (1 Bft)
01/12/2007 18:00 10,3 C 86 % 1014,3 hPa 0,0 l/m 2,6 km/h (1 Bft) N-NE 0,00 h 0,000 mm 0 W/m 8,1 C 10,3 C 4,5 km/h (1 Bft)
01/12/2007 19:00 9,8 C 86 % 1014,7 hPa 0,0 l/m 3,1 km/h (1 Bft) N-NO 0,00 h 0,025 mm 0 W/m 7,5 C 9,7 C 5,2 km/h (1 Bft)
01/12/2007 20:00 9,6 C 85 % 1014,8 hPa 0,0 l/m 3,8 km/h (1 Bft) NO 0,00 h 0,025 mm 0 W/m 7,2 C 9,5 C 6,1 km/h (2 Bft)
01/12/2007 21:00 9,3 C 85 % 1014,8 hPa 0,0 l/m 4,7 km/h (1 Bft) NO 0,00 h 0,025 mm 0 W/m 6,9 C 9,1 C 6,7 km/h (2 Bft)
01/12/2007 22:00 8,9 C 85 % 1014,7 hPa 0,0 l/m 3,6 km/h (1 Bft) O-NO 0,00 h 0,025 mm 0 W/m 6,5 C 8,8 C 5,5 km/h (1 Bft)
01/12/2007 23:00 8,6 C 86 % 1014,8 hPa 0,0 l/m 2,3 km/h (1 Bft) O-NO 0,00 h 0,025 mm 0 W/m 6,3 C 8,6 C 3,3 km/h (1 Bft)
02/12/2007 00:00 8,8 C 83 % 1015,1 hPa 0,0 l/m 5,7 km/h (1 Bft) O 0,00 h 0,025 mm 0 W/m 6,0 C 8,1 C 7,2 km/h (2 Bft)
02/12/2007 01:00 9,5 C 78 % 1014,9 hPa 0,0 l/m 4,2 km/h (1 Bft) O-NO 0,00 h 0,025 mm 0 W/m 5,8 C 9,2 C 6,2 km/h (2 Bft)
02/12/2007 02:00 9,3 C 78 % 1015,0 hPa 0,0 l/m 4,3 km/h (1 Bft) NO 0,00 h 0,025 mm 0 W/m 5,7 C 9,1 C 6,1 km/h (2 Bft)
02/12/2007 03:00 8,8 C 79 % 1014,9 hPa 0,0 l/m 4,1 km/h (1 Bft) O-NO 0,00 h 0,025 mm 0 W/m 5,4 C 8,6 C 6,2 km/h (2 Bft)
02/12/2007 04:00 8,4 C 80 % 1015,1 hPa 0,0 l/m 3,4 km/h (1 Bft) O-NO 0,00 h 0,025 mm 0 W/m 5,2 C 8,2 C 4,9 km/h (1 Bft)
02/12/2007 05:00 8,4 C 81 % 1015,2 hPa 0,0 l/m 3,8 km/h (1 Bft) NO 0,00 h 0,025 mm 0 W/m 5,3 C 8,2 C 5,7 km/h (1 Bft)
02/12/2007 06:00 8,4 C 82 % 1015,6 hPa 0,0 l/m 5,9 km/h (2 Bft) NO 0,00 h 0,025 mm 0 W/m 5,5 C 7,7 C 8,3 km/h (2 Bft)
02/12/2007 07:00 8,3 C 82 % 1016,1 hPa 0,0 l/m 5,0 km/h (1 Bft) NO 0,00 h 0,025 mm 6 W/m 5,4 C 7,8 C 7,1 km/h (2 Bft)
02/12/2007 08:00 8,3 C 81 % 1016,5 hPa 0,0 l/m 6,1 km/h (2 Bft) O 0,27 h 0,025 mm 44 W/m 5,2 C 7,5 C 8,8 km/h (2 Bft)
02/12/2007 09:00 11,2 C 70 % 1017,0 hPa 0,0 l/m 2,7 km/h (1 Bft) O-NO 1,00 h 0,025 mm 186 W/m 5,9 C 11,1 C 4,1 km/h (1 Bft)
02/12/2007 10:00 13,7 C 67 % 1017,2 hPa 0,0 l/m 0,3 km/h (0 Bft) O-NO 1,00 h 0,102 mm 295 W/m 7,8 C 13,7 C 0,9 km/h (0 Bft)
02/12/2007 11:00 14,6 C 70 % 1017,0 hPa 0,0 l/m 2,1 km/h (1 Bft) E-SE 0,80 h 0,152 mm 313 W/m 9,2 C 14,6 C 3,9 km/h (1 Bft)
02/12/2007 12:00 14,6 C 69 % 1016,3 hPa 0,0 l/m 3,3 km/h (1 Bft) S 0,83 h 0,178 mm 339 W/m 8,9 C 14,6 C 5,3 km/h (1 Bft)
02/12/2007 13:00 14,3 C 71 % 1015,8 hPa 0,0 l/m 7,7 km/h (2 Bft) S-SE 0,33 h 0,203 mm 178 W/m 9,2 C 14,3 C 10,5 km/h (2 Bft)
02/12/2007 14:00 14,8 C 71 % 1015,3 hPa 0,0 l/m 6,8 km/h (2 Bft) S 0,85 h 0,127 mm 252 W/m 9,5 C 14,8 C 9,8 km/h (2 Bft)
02/12/2007 15:00 14,1 C 72 % 1014,8 hPa 0,0 l/m 9,3 km/h (2 Bft) S 0,82 h 0,152 mm 129 W/m 9,1 C 14,1 C 12,6 km/h (3 Bft)
02/12/2007 16:00 12,6 C 74 % 1014,6 hPa 0,0 l/m 4,9 km/h (1 Bft) S-SO 0,22 h 0,102 mm 32 W/m 8,2 C 12,6 C 6,8 km/h (2 Bft)
02/12/2007 17:00 11,4 C 76 % 1014,3 hPa 0,0 l/m 2,1 km/h (1 Bft) SO 0,00 h 0,025 mm 0 W/m 7,4 C 11,4 C 3,3 km/h (1 Bft)
02/12/2007 18:00 10,6 C 78 % 1013,8 hPa 0,0 l/m 2,6 km/h (1 Bft) O 0,00 h 0,000 mm 0 W/m 7,0 C 10,6 C 4,4 km/h (1 Bft)
02/12/2007 19:00 9,8 C 80 % 1013,3 hPa 0,0 l/m 4,1 km/h (1 Bft) NO 0,00 h 0,025 mm 0 W/m 6,6 C 9,7 C 5,6 km/h (1 Bft)
02/12/2007 20:00 9,6 C 78 % 1012,6 hPa 0,0 l/m 9,5 km/h (2 Bft) O 0,00 h 0,025 mm 0 W/m 6,0 C 8,4 C 12,9 km/h (3 Bft)
02/12/2007 21:00 9,1 C 72 % 1011,4 hPa 0,0 l/m 12,0 km/h (2 Bft) O 0,00 h 0,025 mm 0 W/m 4,3 C 7,3 C 17,6 km/h (3 Bft)
02/12/2007 22:00 9,5 C 69 % 1010,2 hPa 0,0 l/m 19,7 km/h (3 Bft) O-SO 0,00 h 0,051 mm 0 W/m 4,1 C 7,0 C 26,9 km/h (4 Bft)
02/12/2007 23:00 10,4 C 65 % 1009,8 hPa 0,0 l/m 24,2 km/h (4 Bft) O-SO 0,00 h 0,076 mm 0 W/m 4,0 C 9,8 C 32,0 km/h (5 Bft)
Min-Date _ 30/11/07 27/11/07 29/11/07 - 26/11/07 - - - - 27/11/07 30/11/07 26/11/07
_ Min-Heure 07:33 12:36 15:15 - 00:05 - - - - 12:36 06:32 04:46
Minimum _ 5,8 C 27 % 1009,0 hPa - 0,0 km/h (0 Bft) - - - - -2,4 C 4,5 C 0,0 km/h (0 Bft)
Max-Date _ 27/11/07 26/11/07 27/11/07 26/11/07 02/12/07 - 26/11/07 27/11/07 26/11/07 01/12/07 27/11/07 02/12/07
_ Max-Heure 12:55 00:00 10:30 03:53 23:28 - 07:50 13:00 12:31 14:34 12:55 23:25
Maximum _ 17,3 C 94 % 1017,6 hPa 0,2 l/m 37,0 km/h
O-SO (5 Bft)
- 0,02 h 0,254 mm 475 W/m 10,2 C 17,3 C 45,1 km/h
O-SO (6 Bft)
Moyenne _ 10,4 C 72 % 1013,8 hPa #0,2 l/m 4,7 km/h (1 Bft) O-NO #53:25 h #11,579 mm 197 W/m 5,4 C 10,1 C 6,8 km/h (2 Bft)
Roquefort les pins